La rose des vents
Donnes mto: Semaine 22/12/08 - 28/12/08 (S 52)
Date Horaire Temp. E. Hum. E. P.atmo. Pluie Vent 1mn Direction Ensoleilleme Ev.Tr. Solaire P. de rose Temp au vent Rafales
22/12/2008 00:00 10,9 C 55 % 1025,7 hPa 0,0 l/m 4,6 km/h (1 Bft) O-NO 0,00 h 0,051 mm 0 W/m 2,1 C 10,9 C 6,5 km/h (2 Bft)
22/12/2008 01:00 11,7 C 50 % 1025,6 hPa 0,0 l/m 3,9 km/h (1 Bft) NO 0,00 h 0,051 mm 0 W/m 1,7 C 11,7 C 5,5 km/h (1 Bft)
22/12/2008 02:00 10,7 C 53 % 1025,7 hPa 0,0 l/m 2,4 km/h (1 Bft) O-NO 0,00 h 0,051 mm 0 W/m 1,4 C 10,7 C 3,7 km/h (1 Bft)
22/12/2008 03:00 9,7 C 59 % 1025,8 hPa 0,0 l/m 7,0 km/h (2 Bft) O-SO 0,00 h 0,051 mm 0 W/m 2,1 C 8,9 C 9,5 km/h (2 Bft)
22/12/2008 04:00 9,8 C 62 % 1025,4 hPa 0,0 l/m 5,6 km/h (1 Bft) O-SO 0,00 h 0,051 mm 0 W/m 2,9 C 9,2 C 7,6 km/h (2 Bft)
22/12/2008 05:00 9,6 C 58 % 1025,4 hPa 0,0 l/m 2,7 km/h (1 Bft) NO 0,00 h 0,051 mm 0 W/m 1,7 C 9,4 C 4,2 km/h (1 Bft)
22/12/2008 06:00 9,7 C 58 % 1025,5 hPa 0,0 l/m 1,6 km/h (1 Bft) NO 0,00 h 0,051 mm 0 W/m 1,9 C 9,7 C 2,6 km/h (1 Bft)
22/12/2008 07:00 9,5 C 59 % 1025,8 hPa 0,0 l/m 0,4 km/h (0 Bft) NO 0,00 h 0,025 mm 5 W/m 1,8 C 9,5 C 0,9 km/h (0 Bft)
22/12/2008 08:00 9,7 C 63 % 1026,1 hPa 0,0 l/m 4,6 km/h (1 Bft) O-SO 0,77 h 0,000 mm 46 W/m 3,0 C 9,5 C 5,9 km/h (2 Bft)
22/12/2008 09:00 12,0 C 62 % 1026,3 hPa 0,0 l/m 2,5 km/h (1 Bft) O-SO 1,00 h 0,051 mm 170 W/m 5,0 C 12,0 C 3,5 km/h (1 Bft)
22/12/2008 10:00 12,6 C 59 % 1026,7 hPa 0,0 l/m 2,6 km/h (1 Bft) E 1,00 h 0,102 mm 282 W/m 4,6 C 12,6 C 4,3 km/h (1 Bft)
22/12/2008 11:00 13,2 C 66 % 1026,6 hPa 0,0 l/m 4,9 km/h (1 Bft) E-NE 1,00 h 0,152 mm 354 W/m 6,9 C 13,2 C 7,1 km/h (2 Bft)
22/12/2008 12:00 13,8 C 71 % 1026,0 hPa 0,0 l/m 4,7 km/h (1 Bft) E-NE 1,00 h 0,203 mm 379 W/m 8,5 C 13,8 C 7,4 km/h (2 Bft)
22/12/2008 13:00 14,1 C 75 % 1025,6 hPa 0,0 l/m 4,9 km/h (1 Bft) E 1,00 h 0,203 mm 351 W/m 9,8 C 14,1 C 7,8 km/h (2 Bft)
22/12/2008 14:00 13,4 C 81 % 1025,3 hPa 0,0 l/m 3,4 km/h (1 Bft) E 0,68 h 0,203 mm 228 W/m 10,2 C 13,4 C 6,2 km/h (2 Bft)
22/12/2008 15:00 12,8 C 84 % 1025,1 hPa 0,0 l/m 1,3 km/h (1 Bft) E 0,87 h 0,127 mm 151 W/m 10,1 C 12,8 C 3,2 km/h (1 Bft)
22/12/2008 16:00 12,3 C 83 % 1024,7 hPa 0,0 l/m 0,6 km/h (0 Bft) E-SE 0,10 h 0,076 mm 32 W/m 9,5 C 12,3 C 1,3 km/h (1 Bft)
22/12/2008 17:00 11,1 C 85 % 1024,7 hPa 0,0 l/m 0,3 km/h (0 Bft) E-SE 0,00 h 0,025 mm 0 W/m 8,7 C 11,1 C 0,7 km/h (0 Bft)
22/12/2008 18:00 10,4 C 87 % 1025,1 hPa 0,0 l/m 0,7 km/h (0 Bft) E-SE 0,00 h 0,000 mm 0 W/m 8,3 C 10,4 C 1,4 km/h (1 Bft)
22/12/2008 19:00 9,4 C 88 % 1025,0 hPa 0,0 l/m 3,2 km/h (1 Bft) O 0,00 h 0,025 mm 0 W/m 7,5 C 9,3 C 4,8 km/h (1 Bft)
22/12/2008 20:00 8,7 C 90 % 1024,7 hPa 0,0 l/m 4,9 km/h (1 Bft) O 0,00 h 0,025 mm 0 W/m 7,2 C 8,2 C 7,0 km/h (2 Bft)
22/12/2008 21:00 8,3 C 92 % 1024,4 hPa 0,0 l/m 5,9 km/h (2 Bft) O 0,00 h 0,025 mm 0 W/m 7,0 C 7,5 C 8,3 km/h (2 Bft)
22/12/2008 22:00 7,5 C 92 % 1024,2 hPa 0,0 l/m 6,1 km/h (2 Bft) O 0,00 h 0,025 mm 0 W/m 6,4 C 6,6 C 8,1 km/h (2 Bft)
22/12/2008 23:00 7,0 C 93 % 1024,2 hPa 0,0 l/m 5,6 km/h (1 Bft) O 0,00 h 0,025 mm 0 W/m 6,0 C 6,2 C 7,7 km/h (2 Bft)
23/12/2008 00:00 6,8 C 93 % 1024,2 hPa 0,0 l/m 2,8 km/h (1 Bft) O-NO 0,00 h 0,025 mm 0 W/m 5,8 C 6,6 C 3,8 km/h (1 Bft)
23/12/2008 01:00 7,2 C 93 % 1024,2 hPa 0,0 l/m 2,4 km/h (1 Bft) O-NO 0,00 h 0,000 mm 0 W/m 6,1 C 7,1 C 3,3 km/h (1 Bft)
23/12/2008 02:00 6,7 C 93 % 1024,0 hPa 0,0 l/m 7,0 km/h (2 Bft) O 0,00 h 0,000 mm 0 W/m 5,7 C 5,4 C 8,7 km/h (2 Bft)
23/12/2008 03:00 7,0 C 93 % 1023,8 hPa 0,2 l/m 7,1 km/h (2 Bft) O 0,00 h 0,025 mm 0 W/m 6,0 C 5,8 C 9,2 km/h (2 Bft)
23/12/2008 04:00 6,6 C 94 % 1023,7 hPa 0,0 l/m 6,1 km/h (2 Bft) O-NO 0,00 h 0,025 mm 0 W/m 5,7 C 5,6 C 7,8 km/h (2 Bft)
23/12/2008 05:00 6,6 C 94 % 1023,5 hPa 0,0 l/m 4,7 km/h (1 Bft) O 0,00 h 0,000 mm 0 W/m 5,7 C 6,0 C 6,2 km/h (2 Bft)
23/12/2008 06:00 6,8 C 94 % 1023,7 hPa 0,0 l/m 2,7 km/h (1 Bft) O-NO 0,00 h 0,000 mm 0 W/m 5,9 C 6,7 C 3,8 km/h (1 Bft)
23/12/2008 07:00 6,2 C 94 % 1024,1 hPa 0,0 l/m 2,7 km/h (1 Bft) O-NO 0,00 h 0,000 mm 5 W/m 5,2 C 6,1 C 3,8 km/h (1 Bft)
23/12/2008 08:00 6,4 C 94 % 1024,6 hPa 0,0 l/m 0,3 km/h (0 Bft) NE 0,75 h 0,000 mm 56 W/m 5,4 C 6,4 C 0,6 km/h (0 Bft)
23/12/2008 09:00 8,4 C 86 % 1025,1 hPa 0,0 l/m 0,5 km/h (0 Bft) NE 1,00 h 0,025 mm 175 W/m 6,1 C 8,4 C 1,0 km/h (0 Bft)
23/12/2008 10:00 11,0 C 78 % 1025,3 hPa 0,0 l/m 1,0 km/h (0 Bft) E 1,00 h 0,076 mm 281 W/m 7,3 C 11,0 C 1,8 km/h (1 Bft)
23/12/2008 11:00 11,6 C 77 % 1025,4 hPa 0,0 l/m 2,2 km/h (1 Bft) E-SE 1,00 h 0,127 mm 351 W/m 7,7 C 11,6 C 3,9 km/h (1 Bft)
23/12/2008 12:00 12,3 C 76 % 1024,9 hPa 0,0 l/m 4,1 km/h (1 Bft) E 1,00 h 0,178 mm 370 W/m 8,1 C 12,3 C 5,9 km/h (2 Bft)
23/12/2008 13:00 12,6 C 76 % 1024,4 hPa 0,0 l/m 4,6 km/h (1 Bft) E-NE 1,00 h 0,203 mm 342 W/m 8,5 C 12,6 C 6,6 km/h (2 Bft)
23/12/2008 14:00 12,9 C 77 % 1024,1 hPa 0,0 l/m 4,1 km/h (1 Bft) E-NE 1,00 h 0,178 mm 266 W/m 9,0 C 12,9 C 6,1 km/h (2 Bft)
23/12/2008 15:00 12,4 C 79 % 1024,2 hPa 0,0 l/m 2,6 km/h (1 Bft) E 1,00 h 0,152 mm 153 W/m 8,8 C 12,4 C 4,4 km/h (1 Bft)
23/12/2008 16:00 10,8 C 85 % 1024,6 hPa 0,0 l/m 2,7 km/h (1 Bft) S 0,75 h 0,076 mm 39 W/m 8,3 C 10,8 C 4,1 km/h (1 Bft)
23/12/2008 17:00 9,3 C 87 % 1024,7 hPa 0,0 l/m 2,5 km/h (1 Bft) S 0,00 h 0,025 mm 5 W/m 7,3 C 9,3 C 3,4 km/h (1 Bft)
23/12/2008 18:00 9,3 C 90 % 1025,0 hPa 0,0 l/m 1,9 km/h (1 Bft) S 0,00 h 0,000 mm 0 W/m 7,6 C 9,2 C 3,1 km/h (1 Bft)
23/12/2008 19:00 8,5 C 90 % 1024,8 hPa 0,0 l/m 4,2 km/h (1 Bft) NO 0,00 h 0,025 mm 0 W/m 7,0 C 8,2 C 5,8 km/h (2 Bft)
23/12/2008 20:00 7,5 C 91 % 1024,9 hPa 0,0 l/m 2,8 km/h (1 Bft) NO 0,00 h 0,025 mm 0 W/m 6,2 C 7,4 C 4,6 km/h (1 Bft)
23/12/2008 21:00 7,5 C 92 % 1024,8 hPa 0,0 l/m 3,7 km/h (1 Bft) NO 0,00 h 0,000 mm 0 W/m 6,3 C 7,3 C 4,9 km/h (1 Bft)
23/12/2008 22:00 7,3 C 92 % 1025,1 hPa 0,0 l/m 2,3 km/h (1 Bft) NO 0,00 h 0,000 mm 0 W/m 6,1 C 7,2 C 3,1 km/h (1 Bft)
23/12/2008 23:00 6,9 C 92 % 1025,7 hPa 0,0 l/m 1,6 km/h (1 Bft) NO 0,00 h 0,000 mm 0 W/m 5,7 C 6,9 C 2,5 km/h (1 Bft)
24/12/2008 00:00 6,5 C 92 % 1025,9 hPa 0,0 l/m 2,9 km/h (1 Bft) NO 0,00 h 0,000 mm 0 W/m 5,3 C 6,4 C 4,2 km/h (1 Bft)
24/12/2008 01:00 6,8 C 92 % 1025,9 hPa 0,0 l/m 3,1 km/h (1 Bft) NO 0,00 h 0,000 mm 0 W/m 5,7 C 6,6 C 4,8 km/h (1 Bft)
24/12/2008 02:00 6,5 C 92 % 1025,7 hPa 0,0 l/m 5,4 km/h (1 Bft) O-NO 0,00 h 0,000 mm 0 W/m 5,3 C 5,6 C 7,2 km/h (2 Bft)
24/12/2008 03:00 6,5 C 92 % 1025,8 hPa 0,2 l/m 4,3 km/h (1 Bft) NO 0,00 h 0,025 mm 0 W/m 5,3 C 6,0 C 6,2 km/h (2 Bft)
24/12/2008 04:00 6,8 C 92 % 1025,6 hPa 0,0 l/m 6,7 km/h (2 Bft) O-NO 0,00 h 0,000 mm 0 W/m 5,6 C 5,6 C 8,2 km/h (2 Bft)
24/12/2008 05:00 6,9 C 92 % 1025,3 hPa 0,0 l/m 7,1 km/h (2 Bft) O 0,00 h 0,025 mm 0 W/m 5,7 C 5,6 C 8,4 km/h (2 Bft)
24/12/2008 06:00 6,8 C 92 % 1025,3 hPa 0,0 l/m 6,0 km/h (2 Bft) O-NO 0,00 h 0,025 mm 0 W/m 5,6 C 5,8 C 7,8 km/h (2 Bft)
24/12/2008 07:00 6,2 C 92 % 1025,5 hPa 0,0 l/m 3,9 km/h (1 Bft) NO 0,00 h 0,025 mm 5 W/m 5,0 C 5,8 C 5,7 km/h (1 Bft)
24/12/2008 08:00 6,6 C 93 % 1026,1 hPa 0,0 l/m 2,5 km/h (1 Bft) NO 0,75 h 0,000 mm 45 W/m 5,5 C 6,4 C 3,4 km/h (1 Bft)
24/12/2008 09:00 8,8 C 87 % 1026,4 hPa 0,0 l/m 0,0 km/h (0 Bft) N 1,00 h 0,025 mm 161 W/m 6,8 C 8,8 C 0,0 km/h (0 Bft)
24/12/2008 10:00 10,9 C 81 % 1026,5 hPa 0,0 l/m 2,6 km/h (1 Bft) NO 1,00 h 0,076 mm 270 W/m 7,8 C 10,9 C 4,1 km/h (1 Bft)
24/12/2008 11:00 11,6 C 82 % 1026,4 hPa 0,0 l/m 4,7 km/h (1 Bft) S-SE 1,00 h 0,127 mm 344 W/m 8,6 C 11,6 C 7,1 km/h (2 Bft)
24/12/2008 12:00 12,4 C 79 % 1025,7 hPa 0,0 l/m 4,1 km/h (1 Bft) S-SE 1,00 h 0,178 mm 369 W/m 8,9 C 12,4 C 6,6 km/h (2 Bft)
24/12/2008 13:00 13,1 C 76 % 1024,6 hPa 0,0 l/m 4,3 km/h (1 Bft) S-SE 1,00 h 0,203 mm 338 W/m 9,0 C 13,1 C 6,6 km/h (2 Bft)
24/12/2008 14:00 12,6 C 78 % 1024,3 hPa 0,0 l/m 6,8 km/h (2 Bft) S-SE 1,00 h 0,178 mm 260 W/m 8,9 C 12,6 C 9,6 km/h (2 Bft)
24/12/2008 15:00 11,8 C 80 % 1024,2 hPa 0,0 l/m 8,8 km/h (2 Bft) S-SE 0,72 h 0,152 mm 149 W/m 8,5 C 11,8 C 12,3 km/h (3 Bft)
24/12/2008 16:00 10,5 C 83 % 1024,3 hPa 0,0 l/m 6,4 km/h (2 Bft) S 0,00 h 0,102 mm 15 W/m 7,8 C 10,4 C 8,6 km/h (2 Bft)
24/12/2008 17:00 9,7 C 87 % 1024,4 hPa 0,0 l/m 2,6 km/h (1 Bft) S-SO 0,00 h 0,025 mm 0 W/m 7,6 C 9,6 C 3,7 km/h (1 Bft)
24/12/2008 18:00 9,5 C 87 % 1024,2 hPa 0,0 l/m 1,9 km/h (1 Bft) S-SO 0,00 h 0,000 mm 0 W/m 7,5 C 9,4 C 2,6 km/h (1 Bft)
24/12/2008 19:00 9,3 C 89 % 1023,6 hPa 0,0 l/m 2,3 km/h (1 Bft) S-SO 0,00 h 0,025 mm 0 W/m 7,6 C 9,2 C 3,3 km/h (1 Bft)
24/12/2008 20:00 9,2 C 89 % 1022,7 hPa 0,0 l/m 9,1 km/h (2 Bft) SO 0,00 h 0,025 mm 0 W/m 7,5 C 7,9 C 12,3 km/h (3 Bft)
24/12/2008 21:00 8,8 C 89 % 1022,0 hPa 0,0 l/m 9,0 km/h (2 Bft) SO 0,00 h 0,025 mm 0 W/m 7,1 C 7,5 C 12,1 km/h (2 Bft)
24/12/2008 22:00 8,5 C 89 % 1021,2 hPa 0,0 l/m 8,2 km/h (2 Bft) SO 0,00 h 0,025 mm 0 W/m 6,8 C 7,3 C 10,9 km/h (2 Bft)
24/12/2008 23:00 8,1 C 89 % 1020,4 hPa 0,0 l/m 9,2 km/h (2 Bft) SO 0,00 h 0,025 mm 0 W/m 6,4 C 6,5 C 12,3 km/h (3 Bft)
25/12/2008 00:00 7,7 C 89 % 1019,4 hPa 0,0 l/m 5,1 km/h (1 Bft) S 0,00 h 0,025 mm 0 W/m 6,0 C 7,0 C 7,3 km/h (2 Bft)
25/12/2008 01:00 7,3 C 89 % 1018,4 hPa 0,0 l/m 0,7 km/h (0 Bft) E-NE 0,00 h 0,025 mm 0 W/m 5,6 C 7,3 C 1,2 km/h (1 Bft)
25/12/2008 02:00 7,1 C 90 % 1017,8 hPa 0,0 l/m 3,8 km/h (1 Bft) N-NE 0,00 h 0,000 mm 0 W/m 5,5 C 6,7 C 6,2 km/h (2 Bft)
25/12/2008 03:00 7,1 C 90 % 1017,0 hPa 0,0 l/m 5,8 km/h (2 Bft) N-NE 0,00 h 0,025 mm 0 W/m 5,5 C 6,2 C 9,7 km/h (2 Bft)
25/12/2008 04:00 7,0 C 89 % 1015,8 hPa 0,0 l/m 6,1 km/h (2 Bft) NE 0,00 h 0,025 mm 0 W/m 5,3 C 6,1 C 9,8 km/h (2 Bft)
25/12/2008 05:00 6,9 C 88 % 1014,6 hPa 0,0 l/m 4,6 km/h (1 Bft) NE 0,00 h 0,025 mm 0 W/m 5,1 C 6,3 C 6,9 km/h (2 Bft)
25/12/2008 06:00 6,7 C 88 % 1014,2 hPa 0,0 l/m 4,4 km/h (1 Bft) NE 0,00 h 0,025 mm 0 W/m 4,8 C 6,2 C 7,1 km/h (2 Bft)
25/12/2008 07:00 7,0 C 87 % 1014,1 hPa 0,0 l/m 9,7 km/h (2 Bft) N-NE 0,00 h 0,025 mm 0 W/m 5,0 C 5,2 C 15,1 km/h (3 Bft)
25/12/2008 08:00 7,6 C 86 % 1015,2 hPa 0,0 l/m 8,8 km/h (2 Bft) N-NE 0,00 h 0,025 mm 5 W/m 5,4 C 6,1 C 14,0 km/h (3 Bft)
25/12/2008 09:00 8,1 C 85 % 1015,8 hPa 0,0 l/m 9,2 km/h (2 Bft) NE 0,00 h 0,025 mm 10 W/m 5,7 C 6,6 C 14,4 km/h (3 Bft)
25/12/2008 10:00 8,2 C 85 % 1016,2 hPa 0,0 l/m 9,9 km/h (2 Bft) NE 0,00 h 0,025 mm 16 W/m 5,8 C 6,6 C 14,8 km/h (3 Bft)
25/12/2008 11:00 8,2 C 87 % 1016,2 hPa 3,0 l/m 11,2 km/h (2 Bft) NE 0,00 h 0,025 mm 34 W/m 6,2 C 6,4 C 16,3 km/h (3 Bft)
25/12/2008 12:00 8,2 C 91 % 1015,9 hPa 1,4 l/m 4,3 km/h (1 Bft) N 0,00 h 0,025 mm 44 W/m 6,8 C 7,9 C 7,3 km/h (2 Bft)
25/12/2008 13:00 8,1 C 92 % 1015,7 hPa 2,2 l/m 6,0 km/h (2 Bft) NE 0,00 h 0,025 mm 22 W/m 6,8 C 7,3 C 9,3 km/h (2 Bft)
25/12/2008 14:00 7,3 C 93 % 1015,4 hPa 2,2 l/m 5,3 km/h (1 Bft) E-NE 0,00 h 0,025 mm 19 W/m 6,2 C 6,6 C 7,4 km/h (2 Bft)
25/12/2008 15:00 6,9 C 93 % 1015,5 hPa 1,6 l/m 5,3 km/h (1 Bft) N-NE 0,00 h 0,025 mm 20 W/m 5,9 C 6,1 C 8,0 km/h (2 Bft)
25/12/2008 16:00 6,8 C 94 % 1015,5 hPa 0,8 l/m 8,1 km/h (2 Bft) N-NE 0,00 h 0,025 mm 7 W/m 5,9 C 5,2 C 13,4 km/h (3 Bft)
25/12/2008 17:00 6,5 C 94 % 1015,5 hPa 0,2 l/m 7,5 km/h (2 Bft) N-NE 0,00 h 0,000 mm 0 W/m 5,6 C 5,1 C 11,4 km/h (2 Bft)
25/12/2008 18:00 6,4 C 94 % 1015,4 hPa 0,2 l/m 7,4 km/h (2 Bft) N-NE 0,00 h 0,000 mm 0 W/m 5,5 C 5,1 C 11,3 km/h (2 Bft)
25/12/2008 19:00 6,4 C 94 % 1015,2 hPa 0,0 l/m 5,1 km/h (1 Bft) N-NE 0,00 h 0,025 mm 0 W/m 5,5 C 5,6 C 7,3 km/h (2 Bft)
25/12/2008 20:00 6,7 C 94 % 1014,8 hPa 0,0 l/m 1,7 km/h (1 Bft) N-NO 0,00 h 0,000 mm 0 W/m 5,8 C 6,7 C 2,7 km/h (1 Bft)
25/12/2008 21:00 6,7 C 93 % 1014,4 hPa 0,0 l/m 2,7 km/h (1 Bft) NO 0,00 h 0,000 mm 0 W/m 5,6 C 6,6 C 4,2 km/h (1 Bft)
25/12/2008 22:00 6,1 C 91 % 1013,7 hPa 0,0 l/m 3,0 km/h (1 Bft) N-NE 0,00 h 0,000 mm 0 W/m 4,7 C 6,0 C 4,8 km/h (1 Bft)
25/12/2008 23:00 5,9 C 88 % 1013,4 hPa 0,0 l/m 3,6 km/h (1 Bft) N 0,00 h 0,000 mm 0 W/m 4,0 C 5,5 C 5,7 km/h (1 Bft)
26/12/2008 00:00 6,2 C 83 % 1013,2 hPa 0,0 l/m 5,6 km/h (1 Bft) N 0,00 h 0,025 mm 0 W/m 3,6 C 5,3 C 8,7 km/h (2 Bft)
26/12/2008 01:00 6,7 C 78 % 1012,8 hPa 0,0 l/m 7,3 km/h (2 Bft) N-NE 0,00 h 0,025 mm 0 W/m 3,1 C 5,3 C 11,7 km/h (2 Bft)
26/12/2008 02:00 7,5 C 68 % 1012,7 hPa 0,0 l/m 8,3 km/h (2 Bft) NE 0,00 h 0,025 mm 0 W/m 2,0 C 6,1 C 11,6 km/h (2 Bft)
26/12/2008 03:00 7,1 C 70 % 1013,1 hPa 0,0 l/m 10,8 km/h (2 Bft) NE 0,00 h 0,051 mm 0 W/m 1,9 C 5,2 C 14,7 km/h (3 Bft)
26/12/2008 04:00 8,2 C 69 % 1013,3 hPa 0,0 l/m 31,4 km/h (5 Bft) E-NE 0,00 h 0,051 mm 0 W/m 2,8 C 4,2 C 42,3 km/h (6 Bft)
26/12/2008 05:00 8,0 C 72 % 1013,8 hPa 0,0 l/m 36,0 km/h (5 Bft) E-NE 0,00 h 0,102 mm 0 W/m 3,3 C 3,6 C 48,9 km/h (6 Bft)
26/12/2008 06:00 7,0 C 67 % 1014,9 hPa 0,2 l/m 25,1 km/h (4 Bft) E-NE 0,00 h 0,102 mm 0 W/m 1,3 C 3,2 C 34,7 km/h (5 Bft)
26/12/2008 07:00 6,7 C 47 % 1015,5 hPa 0,0 l/m 22,0 km/h (4 Bft) NE 0,00 h 0,076 mm 0 W/m -3,8 C 3,0 C 31,0 km/h (5 Bft)
26/12/2008 08:00 6,0 C 47 % 1015,9 hPa 0,0 l/m 20,2 km/h (4 Bft) N-NE 0,00 h 0,127 mm 15 W/m -4,3 C 2,3 C 29,3 km/h (5 Bft)
26/12/2008 09:00 6,0 C 45 % 1016,2 hPa 0,0 l/m 17,5 km/h (3 Bft) N-NE 0,00 h 0,102 mm 64 W/m -5,1 C 2,6 C 26,1 km/h (4 Bft)
26/12/2008 10:00 6,3 C 43 % 1016,9 hPa 0,0 l/m 19,8 km/h (4 Bft) N-NE 0,07 h 0,127 mm 131 W/m -5,4 C 2,8 C 30,0 km/h (5 Bft)
26/12/2008 11:00 6,8 C 42 % 1017,4 hPa 0,0 l/m 19,8 km/h (3 Bft) NE 0,00 h 0,152 mm 160 W/m -5,3 C 3,4 C 28,7 km/h (4 Bft)
26/12/2008 12:00 7,7 C 40 % 1017,4 hPa 0,0 l/m 17,6 km/h (3 Bft) NE 0,35 h 0,178 mm 192 W/m -5,1 C 4,8 C 25,7 km/h (4 Bft)
26/12/2008 13:00 8,2 C 37 % 1017,6 hPa 0,0 l/m 17,0 km/h (3 Bft) NE 0,00 h 0,203 mm 130 W/m -5,7 C 5,4 C 24,4 km/h (4 Bft)
26/12/2008 14:00 8,3 C 37 % 1017,6 hPa 0,0 l/m 17,1 km/h (3 Bft) NE 0,00 h 0,178 mm 99 W/m -5,5 C 5,5 C 24,2 km/h (4 Bft)
26/12/2008 15:00 7,9 C 37 % 1018,3 hPa 0,0 l/m 16,6 km/h (3 Bft) NE 0,00 h 0,152 mm 40 W/m -5,9 C 5,2 C 24,1 km/h (4 Bft)
26/12/2008 16:00 7,4 C 36 % 1018,7 hPa 0,0 l/m 14,5 km/h (3 Bft) NE 0,00 h 0,127 mm 14 W/m -6,5 C 4,8 C 21,7 km/h (4 Bft)
26/12/2008 17:00 6,9 C 36 % 1019,0 hPa 0,0 l/m 15,1 km/h (3 Bft) NE 0,00 h 0,102 mm 0 W/m -7,1 C 4,1 C 21,4 km/h (4 Bft)
26/12/2008 18:00 6,8 C 35 % 1019,4 hPa 0,0 l/m 15,0 km/h (3 Bft) NE 0,00 h 0,102 mm 0 W/m -7,4 C 4,0 C 20,5 km/h (4 Bft)
26/12/2008 19:00 6,7 C 35 % 1019,6 hPa 0,0 l/m 14,6 km/h (3 Bft) NE 0,00 h 0,102 mm 0 W/m -7,6 C 4,0 C 19,9 km/h (4 Bft)
26/12/2008 20:00 6,9 C 35 % 1020,0 hPa 0,0 l/m 12,5 km/h (3 Bft) NE 0,00 h 0,102 mm 0 W/m -7,4 C 4,5 C 17,5 km/h (3 Bft)
26/12/2008 21:00 6,8 C 36 % 1020,3 hPa 0,0 l/m 12,9 km/h (3 Bft) E-NE 0,00 h 0,102 mm 0 W/m -7,2 C 4,3 C 18,4 km/h (3 Bft)
26/12/2008 22:00 7,2 C 39 % 1020,6 hPa 0,0 l/m 11,5 km/h (2 Bft) E-NE 0,00 h 0,102 mm 0 W/m -5,9 C 5,1 C 16,8 km/h (3 Bft)
26/12/2008 23:00 7,4 C 49 % 1021,2 hPa 0,0 l/m 8,4 km/h (2 Bft) NE 0,00 h 0,102 mm 0 W/m -2,6 C 6,0 C 12,8 km/h (3 Bft)
27/12/2008 00:00 7,0 C 48 % 1021,3 hPa 0,0 l/m 2,9 km/h (1 Bft) NE 0,00 h 0,076 mm 0 W/m -3,2 C 6,8 C 4,7 km/h (1 Bft)
27/12/2008 01:00 6,9 C 44 % 1020,8 hPa 0,0 l/m 3,2 km/h (1 Bft) O-NO 0,00 h 0,051 mm 0 W/m -4,6 C 6,6 C 4,9 km/h (1 Bft)
27/12/2008 02:00 6,1 C 45 % 1020,4 hPa 0,0 l/m 5,4 km/h (1 Bft) NE 0,00 h 0,051 mm 0 W/m -4,9 C 5,2 C 7,5 km/h (2 Bft)
27/12/2008 03:00 5,8 C 46 % 1020,3 hPa 0,0 l/m 3,4 km/h (1 Bft) NE 0,00 h 0,051 mm 0 W/m -5,1 C 5,4 C 5,7 km/h (1 Bft)
27/12/2008 04:00 4,9 C 52 % 1020,1 hPa 0,0 l/m 4,6 km/h (1 Bft) NO 0,00 h 0,051 mm 0 W/m -4,0 C 4,1 C 7,0 km/h (2 Bft)
27/12/2008 05:00 5,3 C 51 % 1020,3 hPa 0,0 l/m 4,2 km/h (1 Bft) O-NO 0,00 h 0,051 mm 0 W/m -3,9 C 4,7 C 6,3 km/h (2 Bft)
27/12/2008 06:00 5,2 C 51 % 1020,4 hPa 0,0 l/m 3,6 km/h (1 Bft) O-NO 0,00 h 0,051 mm 0 W/m -4,1 C 4,8 C 5,3 km/h (1 Bft)
27/12/2008 07:00 4,9 C 57 % 1020,8 hPa 0,0 l/m 3,0 km/h (1 Bft) E-NE 0,00 h 0,051 mm 0 W/m -3,0 C 4,6 C 5,1 km/h (1 Bft)
27/12/2008 08:00 4,8 C 61 % 1021,2 hPa 0,0 l/m 1,3 km/h (1 Bft) SO 0,73 h 0,025 mm 39 W/m -2,0 C 4,8 C 2,7 km/h (1 Bft)
27/12/2008 09:00 7,2 C 60 % 1021,5 hPa 0,0 l/m 5,7 km/h (1 Bft) E 0,95 h 0,025 mm 152 W/m 0,0 C 6,4 C 9,0 km/h (2 Bft)
27/12/2008 10:00 8,2 C 64 % 1022,1 hPa 0,0 l/m 13,1 km/h (3 Bft) E-NE 1,00 h 0,102 mm 265 W/m 1,7 C 6,0 C 19,0 km/h (3 Bft)
27/12/2008 11:00 8,6 C 63 % 1022,3 hPa 0,0 l/m 13,5 km/h (3 Bft) E-NE 0,88 h 0,178 mm 314 W/m 1,9 C 6,4 C 20,1 km/h (4 Bft)
27/12/2008 12:00 8,7 C 63 % 1021,9 hPa 0,0 l/m 15,6 km/h (3 Bft) E-NE 1,00 h 0,203 mm 371 W/m 2,0 C 6,3 C 22,7 km/h (4 Bft)
27/12/2008 13:00 8,8 C 61 % 1021,5 hPa 0,0 l/m 14,0 km/h (3 Bft) E 1,00 h 0,229 mm 349 W/m 1,7 C 6,6 C 21,0 km/h (4 Bft)
27/12/2008 14:00 8,6 C 58 % 1021,0 hPa 0,0 l/m 14,4 km/h (3 Bft) E-NE 1,00 h 0,203 mm 286 W/m 0,8 C 6,4 C 20,9 km/h (4 Bft)
27/12/2008 15:00 8,2 C 55 % 1020,9 hPa 0,0 l/m 14,2 km/h (3 Bft) E-NE 0,98 h 0,203 mm 205 W/m -0,3 C 5,9 C 19,6 km/h (3 Bft)
27/12/2008 16:00 7,0 C 56 % 1021,0 hPa 0,0 l/m 18,0 km/h (3 Bft) E-NE 0,73 h 0,152 mm 52 W/m -1,0 C 3,9 C 24,7 km/h (4 Bft)
27/12/2008 17:00 5,9 C 61 % 1021,1 hPa 0,0 l/m 9,1 km/h (2 Bft) E-NE 0,00 h 0,102 mm 5 W/m -1,1 C 4,1 C 13,2 km/h (3 Bft)
27/12/2008 18:00 5,1 C 64 % 1021,4 hPa 0,0 l/m 4,3 km/h (1 Bft) E-NE 0,00 h 0,051 mm 0 W/m -1,2 C 4,4 C 7,0 km/h (2 Bft)
27/12/2008 19:00 4,8 C 64 % 1021,7 hPa 0,0 l/m 3,0 km/h (1 Bft) O-NO 0,00 h 0,025 mm 0 W/m -1,4 C 4,4 C 5,0 km/h (1 Bft)
27/12/2008 20:00 4,1 C 65 % 1021,8 hPa 0,0 l/m 7,5 km/h (2 Bft) O 0,00 h 0,025 mm 0 W/m -1,9 C 2,3 C 9,6 km/h (2 Bft)
27/12/2008 21:00 2,6 C 69 % 1022,0 hPa 0,0 l/m 1,9 km/h (1 Bft) N 0,00 h 0,051 mm 0 W/m -2,5 C 2,4 C 3,6 km/h (1 Bft)
27/12/2008 22:00 2,3 C 73 % 1021,7 hPa 0,0 l/m 3,8 km/h (1 Bft) NO 0,00 h 0,025 mm 0 W/m -2,1 C 1,7 C 5,9 km/h (2 Bft)
27/12/2008 23:00 2,6 C 71 % 1021,7 hPa 0,0 l/m 3,4 km/h (1 Bft) NO 0,00 h 0,025 mm 0 W/m -2,1 C 2,2 C 5,4 km/h (1 Bft)
28/12/2008 00:00 2,2 C 69 % 1021,4 hPa 0,0 l/m 3,4 km/h (1 Bft) O-NO 0,00 h 0,025 mm 0 W/m -2,8 C 1,6 C 5,1 km/h (1 Bft)
28/12/2008 01:00 2,3 C 66 % 1020,9 hPa 0,0 l/m 4,0 km/h (1 Bft) O-NO 0,00 h 0,025 mm 0 W/m -3,4 C 1,5 C 6,1 km/h (2 Bft)
28/12/2008 02:00 2,3 C 64 % 1020,8 hPa 0,0 l/m 2,2 km/h (1 Bft) N-NE 0,00 h 0,025 mm 0 W/m -3,8 C 2,0 C 4,4 km/h (1 Bft)
28/12/2008 03:00 2,3 C 60 % 1020,6 hPa 0,0 l/m 4,1 km/h (1 Bft) N-NE 0,00 h 0,025 mm 0 W/m -4,6 C 1,4 C 6,9 km/h (2 Bft)
28/12/2008 04:00 0,8 C 65 % 1020,3 hPa 0,0 l/m 4,4 km/h (1 Bft) O-NO 0,00 h 0,025 mm 0 W/m -5,0 C -0,2 C 6,5 km/h (2 Bft)
28/12/2008 05:00 0,9 C 66 % 1020,0 hPa 0,0 l/m 6,1 km/h (2 Bft) O 0,00 h 0,025 mm 0 W/m -4,7 C -0,9 C 8,4 km/h (2 Bft)
28/12/2008 06:00 1,1 C 64 % 1020,1 hPa 0,0 l/m 4,3 km/h (1 Bft) O 0,00 h 0,025 mm 0 W/m -4,8 C 0,1 C 6,3 km/h (2 Bft)
28/12/2008 07:00 0,7 C 64 % 1020,1 hPa 0,0 l/m 3,5 km/h (1 Bft) NO 0,00 h 0,025 mm 0 W/m -5,2 C 0,1 C 5,5 km/h (1 Bft)
28/12/2008 08:00 0,9 C 64 % 1020,1 hPa 0,0 l/m 3,2 km/h (1 Bft) O-NO 0,73 h 0,025 mm 39 W/m -5,1 C 0,4 C 5,1 km/h (1 Bft)
28/12/2008 09:00 2,7 C 57 % 1020,5 hPa 0,0 l/m 4,1 km/h (1 Bft) NO 1,00 h 0,025 mm 161 W/m -5,0 C 1,9 C 6,2 km/h (2 Bft)
28/12/2008 10:00 5,7 C 51 % 1021,1 hPa 0,0 l/m 6,4 km/h (2 Bft) E 1,00 h 0,076 mm 272 W/m -3,5 C 4,5 C 10,3 km/h (2 Bft)
28/12/2008 11:00 6,3 C 51 % 1021,1 hPa 0,0 l/m 16,5 km/h (3 Bft) E-NE 1,00 h 0,152 mm 350 W/m -3,1 C 3,3 C 23,6 km/h (4 Bft)
28/12/2008 12:00 7,2 C 47 % 1020,7 hPa 0,0 l/m 17,4 km/h (3 Bft) E-NE 0,97 h 0,229 mm 368 W/m -3,2 C 4,2 C 24,1 km/h (4 Bft)
28/12/2008 13:00 7,7 C 46 % 1019,7 hPa 0,0 l/m 18,0 km/h (3 Bft) E-NE 1,00 h 0,254 mm 356 W/m -3,2 C 4,8 C 24,9 km/h (4 Bft)
28/12/2008 14:00 7,9 C 44 % 1019,4 hPa 0,0 l/m 16,6 km/h (3 Bft) E-NE 1,00 h 0,254 mm 280 W/m -3,6 C 5,1 C 23,4 km/h (4 Bft)
28/12/2008 15:00 7,5 C 40 % 1019,2 hPa 0,0 l/m 16,9 km/h (3 Bft) E-NE 1,00 h 0,229 mm 170 W/m -5,3 C 4,6 C 23,5 km/h (4 Bft)
28/12/2008 16:00 6,4 C 40 % 1019,5 hPa 0,0 l/m 9,8 km/h (2 Bft) E-NE 0,87 h 0,178 mm 49 W/m -6,4 C 4,5 C 13,4 km/h (3 Bft)
28/12/2008 17:00 3,9 C 44 % 1020,0 hPa 0,0 l/m 3,8 km/h (1 Bft) N-NE 0,00 h 0,076 mm 5 W/m -7,2 C 3,5 C 6,2 km/h (2 Bft)
28/12/2008 18:00 2,1 C 52 % 1020,7 hPa 0,0 l/m 3,2 km/h (1 Bft) N 0,00 h 0,025 mm 0 W/m -6,9 C 1,7 C 5,7 km/h (1 Bft)
28/12/2008 19:00 2,0 C 54 % 1021,2 hPa 0,0 l/m 3,1 km/h (1 Bft) N-NE 0,00 h 0,025 mm 0 W/m -6,2 C 1,6 C 5,0 km/h (1 Bft)
28/12/2008 20:00 2,0 C 51 % 1021,8 hPa 0,0 l/m 2,8 km/h (1 Bft) N-NE 0,00 h 0,025 mm 0 W/m -7,2 C 1,7 C 4,7 km/h (1 Bft)
28/12/2008 21:00 2,0 C 49 % 1022,0 hPa 0,0 l/m 2,7 km/h (1 Bft) NO 0,00 h 0,025 mm 0 W/m -7,6 C 1,7 C 4,4 km/h (1 Bft)
28/12/2008 22:00 1,7 C 50 % 1022,2 hPa 0,0 l/m 4,7 km/h (1 Bft) N-NO 0,00 h 0,025 mm 0 W/m -7,5 C 0,6 C 7,3 km/h (2 Bft)
28/12/2008 23:00 1,8 C 48 % 1022,4 hPa 0,0 l/m 4,5 km/h (1 Bft) NO 0,00 h 0,051 mm 0 W/m -7,9 C 0,9 C 7,1 km/h (2 Bft)
Min-Date _ 28/12/08 26/12/08 26/12/08 - 22/12/08 - - - - 28/12/08 28/12/08 22/12/08
_ Min-Heure 07:51 18:37 01:45 - 01:09 - - - - 23:58 08:17 01:09
Minimum _ 0,3 C 33 % 1012,7 hPa - 0,0 km/h (0 Bft) - - - - -8,6 C -2,4 C 0,0 km/h (0 Bft)
Max-Date _ 22/12/08 23/12/08 22/12/08 25/12/08 26/12/08 - 22/12/08 28/12/08 28/12/08 22/12/08 22/12/08 26/12/08
_ Max-Heure 13:00 04:32 10:15 11:00 05:07 - 08:14 13:00 12:19 13:51 13:00 04:42
Maximum _ 14,4 C 95 % 1026,8 hPa 3,0 l/m 46,7 km/h
E-NE (6 Bft)
- 0,02 h 0,254 mm 387 W/m 10,7 C 14,4 C 64,4 km/h
E-NE (8 Bft)
Moyenne _ 7,4 C 71 % 1021,3 hPa #12,2 l/m 6,9 km/h (2 Bft) NE #40:39 h #10,978 mm 161 W/m 2,1 C 6,4 C 10,0 km/h (2 Bft)
Roquefort les pins